Darstellungsparameter: Aktuell verwendete Einstellungen:
Skalierung der Graphiken ... ?
xyx+y,   Skalierungsfaktor:      Skalierung: Modus: x, Faktor: 1
Darstellungszeitraum ... ?
Vom - - bis: - -   Zeitraum: 09.05.2010 - 11.05.2010
Min/Max/Avg-Anzeige ... ?
Zeige MMA aktuell
Zeige MMA Monat
Zeige MMA alles
Zeige --A aktuell
Zeige --A Monat
Zeige --A alles
Keine MMA-Anzeige
MMA:
Average (ber die Originaldaten)
MMA-Basis: 09.05.2010 - 11.05.2010
Quicknavigation für Darstellung... ?
Tage:      1T, 2T, 3T, 5T -1T -2T -3T -5T +1T +2T +3T +5T
Wochen: 1W, 2W, 3W -1W -2W -3W +1W +2W +3W
Monate: 1M, 3M, 6M -1M -3M -6M +1M +3M +6M
Jahre:    1J, 3J, 5J, 10J -1J -3J -5J -10J +1J +3J +5J +10J
Nutze für die Darstellung ... ?
Originaldaten oder Mittelwerte auf ...
Stundenbasis Tagesbasis Wochenbasis
Monatsbasis Jahresbasis      Datenbasis: Original-Daten
Darstellen als:
Statistik (Auto) Statistik J:M      Darstellung:
Zur Graphik,    zurück zur Übersicht aller Sensoren.
 
Tabellarische Datenbersicht: ?
 
Sensor: Nr:Datum:Temp:Abs-Feuchte:Windchill:Wind:
Aussen-T/F 1 09-05-2010 00:00:02 10.2 C 6.38 g/m*3 10.2 C 0 km/h
2 09-05-2010 00:12:02 10 C 6.39 g/m*3 10 C 0 km/h
3 09-05-2010 00:24:03 9.8 C 6.49 g/m*3 9.8 C 0 km/h
4 09-05-2010 00:36:02 9.6 C 6.41 g/m*3 9.6 C 0 km/h
5 09-05-2010 00:48:02 9.4 C 6.42 g/m*3 9.4 C 0 km/h
6 09-05-2010 01:00:02 9.1 C 6.39 g/m*3 9.1 C 0 km/h
7 09-05-2010 01:12:02 9 C 6.52 g/m*3 9 C 0 km/h
8 09-05-2010 01:24:03 8.7 C 6.49 g/m*3 8.7 C 0 km/h
9 09-05-2010 01:36:02 8.6 C 6.44 g/m*3 8.6 C 0 km/h
10 09-05-2010 01:48:03 8.7 C 6.57 g/m*3 8.7 C 0 km/h
11 09-05-2010 02:00:03 8.8 C 6.7 g/m*3 8.8 C 0 km/h
12 09-05-2010 02:12:02 8.7 C 6.66 g/m*3 8.7 C 0 km/h
13 09-05-2010 02:24:02 8.7 C 6.66 g/m*3 8.7 C 0 km/h
14 09-05-2010 02:36:02 8.4 C 6.53 g/m*3 8.4 C 0 km/h
15 09-05-2010 02:49:04 8.5 C 6.57 g/m*3 8.5 C 0 km/h
16 09-05-2010 03:01:04 8.5 C 6.66 g/m*3 8.5 C 0 km/h
17 09-05-2010 03:13:03 8.3 C 6.57 g/m*3 8.3 C 0 km/h
18 09-05-2010 03:25:03 8.5 C 6.66 g/m*3 8.5 C 0 km/h
19 09-05-2010 03:37:01 8.5 C 6.66 g/m*3 8.5 C 0 km/h
20 09-05-2010 03:49:01 8.5 C 6.66 g/m*3 8.5 C 0 km/h
21 09-05-2010 04:01:01 8.6 C 6.7 g/m*3 8.6 C 0 km/h
22 09-05-2010 04:13:01 8.6 C 6.7 g/m*3 8.6 C 0 km/h
23 09-05-2010 04:25:02 8.5 C 6.66 g/m*3 8.5 C 0 km/h
24 09-05-2010 04:37:01 8.5 C 6.66 g/m*3 8.5 C 0 km/h
25 09-05-2010 04:49:03 8.3 C 6.57 g/m*3 8.3 C 0 km/h
Sensor: Nr:Datum:Temp:Abs-Feuchte:Windchill:Wind:
Aussen-T/F 26 09-05-2010 05:01:02 8 C 6.45 g/m*3 8 C 0 km/h
27 09-05-2010 05:13:02 7.8 C 6.53 g/m*3 7.8 C 0 km/h
28 09-05-2010 05:25:02 7.6 C 6.53 g/m*3 7.6 C 0 km/h
29 09-05-2010 05:37:02 7.4 C 6.52 g/m*3 7.4 C 0 km/h
30 09-05-2010 05:49:02 7.4 C 6.52 g/m*3 7.4 C 0 km/h
31 09-05-2010 06:01:02 7.6 C 6.69 g/m*3 7.6 C 0 km/h
32 09-05-2010 06:13:02 7.9 C 6.82 g/m*3 7.9 C 0 km/h
33 09-05-2010 06:25:02 8 C 6.7 g/m*3 8 C 0 km/h
34 09-05-2010 06:37:02 8.1 C 6.74 g/m*3 8.1 C 0 km/h
35 09-05-2010 06:49:02 8.3 C 6.83 g/m*3 8.3 C 0 km/h
36 09-05-2010 07:01:02 8.5 C 6.92 g/m*3 8.5 C 0 km/h
37 09-05-2010 07:13:02 8.6 C 6.87 g/m*3 8.6 C 0 km/h
38 09-05-2010 07:25:01 8.7 C 6.83 g/m*3 8.7 C 0 km/h
39 09-05-2010 07:37:02 9.1 C 6.92 g/m*3 9.1 C 0 km/h
40 09-05-2010 07:49:02 9.1 C 6.83 g/m*3 9.1 C 0 km/h
41 09-05-2010 08:01:02 9.6 C 6.96 g/m*3 9.6 C 0 km/h
42 09-05-2010 08:13:02 9.6 C 6.96 g/m*3 9.6 C 0 km/h
43 09-05-2010 08:25:02 9.6 C 6.87 g/m*3 9.6 C 0 km/h
44 09-05-2010 08:37:02 10 C 7.05 g/m*3 10 C 0 km/h
45 09-05-2010 08:49:02 10.4 C 7.04 g/m*3 10.4 C 0 km/h
46 09-05-2010 09:01:02 10.8 C 7.02 g/m*3 10.8 C 0 km/h
47 09-05-2010 09:13:02 10.9 C 7.16 g/m*3 10.9 C 0 km/h
48 09-05-2010 09:25:02 11.1 C 6.95 g/m*3 11.1 C 0 km/h
49 09-05-2010 09:37:03 11.7 C 7.11 g/m*3 11.7 C 0 km/h
50 09-05-2010 09:49:02 12 C 6.93 g/m*3 12 C 0 km/h
Sensor: Nr:Datum:Temp:Abs-Feuchte:Windchill:Wind:
Aussen-T/F 51 09-05-2010 10:01:01 12.4 C 6.99 g/m*3 12.4 C 0 km/h
52 09-05-2010 10:13:01 12.7 C 7.12 g/m*3 12.7 C 0 km/h
53 09-05-2010 10:25:01 12.2 C 7.23 g/m*3 12.2 C 0 km/h
54 09-05-2010 10:37:02 12.2 C 7.55 g/m*3 12.2 C 0 km/h
55 09-05-2010 10:49:02 12 C 7.35 g/m*3 12 C 0 km/h
56 09-05-2010 11:01:01 12.2 C 7.55 g/m*3 12.2 C 0 km/h
57 09-05-2010 11:13:01 12.4 C 7.54 g/m*3 12.4 C 0 km/h
58 09-05-2010 11:25:02 12.3 C 7.38 g/m*3 12.3 C 0 km/h
59 09-05-2010 11:37:01 12.3 C 7.28 g/m*3 12.3 C 0 km/h
60 09-05-2010 11:49:02 12.2 C 7.23 g/m*3 12.2 C 0 km/h
61 09-05-2010 12:01:02 12.3 C 7.28 g/m*3 12.3 C 0 km/h
62 09-05-2010 12:13:02 13 C 7.37 g/m*3 13 C 0 km/h
63 09-05-2010 12:25:02 13.4 C 7.21 g/m*3 13.4 C 0 km/h
64 09-05-2010 12:37:02 14 C 7.24 g/m*3 14 C 0 km/h
65 09-05-2010 12:49:02 14.4 C 7.17 g/m*3 14.4 C 0 km/h
66 09-05-2010 13:01:01 15 C 6.92 g/m*3 15 C 0 km/h
67 09-05-2010 13:13:01 16.2 C 7.03 g/m*3 16.2 C 0 km/h
68 09-05-2010 13:25:01 17.2 C 6.59 g/m*3 17.2 C 0 km/h
69 09-05-2010 13:37:02 18.5 C 6.33 g/m*3 18.5 C 0 km/h
70 09-05-2010 13:49:02 18.2 C 6.22 g/m*3 18.2 C 0 km/h
71 09-05-2010 14:01:02 17.9 C 6.11 g/m*3 17.9 C 0 km/h
72 09-05-2010 14:13:02 17.5 C 6.11 g/m*3 17.5 C 0 km/h
73 09-05-2010 14:25:02 16.7 C 6.11 g/m*3 16.7 C 0 km/h
74 09-05-2010 14:37:01 16.7 C 6.11 g/m*3 16.7 C 0 km/h
75 09-05-2010 14:49:02 17 C 6.22 g/m*3 17 C 0 km/h
Sensor: Nr:Datum:Temp:Abs-Feuchte:Windchill:Wind:
Aussen-T/F 76 09-05-2010 15:01:01 17 C 6.22 g/m*3 17 C 0 km/h
77 09-05-2010 15:13:01 17.3 C 6.33 g/m*3 17.3 C 0 km/h
78 09-05-2010 15:25:02 17.6 C 6.3 g/m*3 17.6 C 0 km/h
79 09-05-2010 15:37:01 17.8 C 6.37 g/m*3 17.8 C 0 km/h
80 09-05-2010 15:49:03 17.9 C 6.26 g/m*3 17.9 C 0 km/h
81 09-05-2010 16:01:02 18 C 6.3 g/m*3 18 C 0 km/h
82 09-05-2010 16:13:02 18.7 C 6.4 g/m*3 18.7 C 0 km/h
83 09-05-2010 16:25:02 19.1 C 6.23 g/m*3 19.1 C 0 km/h
84 09-05-2010 16:37:02 18.7 C 6.08 g/m*3 18.7 C 0 km/h
85 09-05-2010 16:49:02 18 C 5.68 g/m*3 18 C 0 km/h
86 09-05-2010 17:01:02 17.8 C 5.77 g/m*3 17.8 C 0 km/h
87 09-05-2010 17:13:02 19.6 C 5.74 g/m*3 19.6 C 0 km/h
88 09-05-2010 17:25:02 19.5 C 5.03 g/m*3 19.5 C 0 km/h
89 09-05-2010 17:37:02 19.1 C 5.41 g/m*3 19.1 C 0 km/h
90 09-05-2010 17:49:02 19.4 C 5.17 g/m*3 19.4 C 0 km/h
91 09-05-2010 18:01:02 19.5 C 5.71 g/m*3 19.5 C 0 km/h
92 09-05-2010 18:13:02 18.9 C 5.67 g/m*3 18.9 C 0 km/h
93 09-05-2010 18:25:03 18.7 C 5.76 g/m*3 18.7 C 0 km/h
94 09-05-2010 18:37:02 18.3 C 5.79 g/m*3 18.3 C 0 km/h
95 09-05-2010 18:49:03 18.1 C 6.03 g/m*3 18.1 C 0 km/h
96 09-05-2010 19:01:02 17.6 C 6.6 g/m*3 17.6 C 0 km/h
97 09-05-2010 19:13:03 17 C 6.8 g/m*3 17 C 0 km/h
98 09-05-2010 19:25:02 17 C 6.95 g/m*3 17 C 0 km/h
99 09-05-2010 19:37:02 16.6 C 6.92 g/m*3 16.6 C 0 km/h
100 09-05-2010 19:49:01 16.2 C 6.9 g/m*3 16.2 C 0 km/h
Sensor: Nr:Datum:Temp:Abs-Feuchte:Windchill:Wind:
Aussen-T/F 101 09-05-2010 20:01:02 15.8 C 7 g/m*3 15.8 C 0 km/h
102 09-05-2010 20:13:02 15.2 C 6.88 g/m*3 15.2 C 0 km/h
103 09-05-2010 20:25:01 14.8 C 6.84 g/m*3 14.8 C 0 km/h
104 09-05-2010 20:37:01 14.3 C 6.88 g/m*3 14.3 C 0 km/h
105 09-05-2010 20:49:01 14 C 6.75 g/m*3 14 C 0 km/h
106 09-05-2010 21:01:02 13.4 C 6.97 g/m*3 13.4 C 0 km/h
107 09-05-2010 21:13:02 12.8 C 7.06 g/m*3 12.8 C 0 km/h
108 09-05-2010 21:25:02 12.5 C 7.15 g/m*3 12.5 C 0 km/h
109 09-05-2010 21:37:02 12.1 C 7.08 g/m*3 12.1 C 0 km/h
110 09-05-2010 21:49:02 11.7 C 7.11 g/m*3 11.7 C 0 km/h
111 09-05-2010 22:01:03 11.5 C 7.13 g/m*3 11.5 C 0 km/h
112 09-05-2010 22:13:03 11.3 C 7.14 g/m*3 11.3 C 0 km/h
113 09-05-2010 22:25:02 11.1 C 7.05 g/m*3 11.1 C 0 km/h
114 09-05-2010 22:38:04 10.9 C 6.96 g/m*3 10.9 C 0 km/h
115 09-05-2010 22:50:04 10.8 C 7.02 g/m*3 10.8 C 0 km/h
116 09-05-2010 23:02:04 10.8 C 7.12 g/m*3 10.8 C 0 km/h
117 09-05-2010 23:14:04 10.9 C 7.06 g/m*3 10.9 C 0 km/h
118 09-05-2010 23:26:05 10.7 C 7.07 g/m*3 10.7 C 0 km/h
119 09-05-2010 23:38:05 10.8 C 7.22 g/m*3 10.8 C 0 km/h
120 09-05-2010 23:50:05 10.5 C 7.08 g/m*3 10.5 C 0 km/h
121 10-05-2010 00:02:05 10.4 C 7.13 g/m*3 10.4 C 0 km/h
122 10-05-2010 00:14:05 10.5 C 7.18 g/m*3 10.5 C 0 km/h
123 10-05-2010 00:26:05 10.3 C 7.09 g/m*3 10.3 C 0 km/h
124 10-05-2010 00:38:05 10.1 C 7.09 g/m*3 10.1 C 0 km/h
125 10-05-2010 00:50:05 9.8 C 7.24 g/m*3 9.8 C 0 km/h
Sensor: Nr:Datum:Temp:Abs-Feuchte:Windchill:Wind:
Aussen-T/F 126 10-05-2010 01:02:05 9.8 C 7.24 g/m*3 9.8 C 0 km/h
127 10-05-2010 01:14:05 9.8 C 7.33 g/m*3 9.8 C 0 km/h
128 10-05-2010 01:26:05 9.9 C 7.38 g/m*3 9.9 C 0 km/h
129 10-05-2010 01:38:05 10 C 7.24 g/m*3 10 C 0 km/h
130 10-05-2010 01:50:05 9.8 C 7.24 g/m*3 9.8 C 0 km/h
131 10-05-2010 02:02:05 9.7 C 7.19 g/m*3 9.7 C 0 km/h
132 10-05-2010 02:14:05 9.5 C 7.19 g/m*3 9.5 C 0 km/h
133 10-05-2010 02:26:05 9.4 C 7.24 g/m*3 9.4 C 0 km/h
134 10-05-2010 02:38:05 9.4 C 7.24 g/m*3 9.4 C 0 km/h
135 10-05-2010 02:50:05 9.4 C 7.33 g/m*3 9.4 C 0 km/h
136 10-05-2010 03:02:05 9.2 C 7.23 g/m*3 9.2 C 0 km/h
137 10-05-2010 03:14:05 9 C 7.14 g/m*3 9 C 0 km/h
138 10-05-2010 03:26:05 8.8 C 7.14 g/m*3 8.8 C 0 km/h
139 10-05-2010 03:38:05 8.7 C 7.18 g/m*3 8.7 C 0 km/h
140 10-05-2010 03:50:06 8.7 C 7.26 g/m*3 8.7 C 0 km/h
141 10-05-2010 04:02:06 8.6 C 7.22 g/m*3 8.6 C 0 km/h
142 10-05-2010 04:14:06 8.6 C 7.22 g/m*3 8.6 C 0 km/h
143 10-05-2010 04:26:06 8.6 C 7.3 g/m*3 8.6 C 0 km/h
144 10-05-2010 04:38:06 8.6 C 7.3 g/m*3 8.6 C 0 km/h
145 10-05-2010 04:50:06 8.7 C 7.26 g/m*3 8.7 C 0 km/h
146 10-05-2010 05:02:06 8.6 C 7.22 g/m*3 8.6 C 0 km/h
147 10-05-2010 05:14:06 8.6 C 7.22 g/m*3 8.6 C 0 km/h
148 10-05-2010 05:26:06 8.6 C 7.3 g/m*3 8.6 C 0 km/h
149 10-05-2010 05:38:06 8.7 C 7.35 g/m*3 8.7 C 0 km/h
150 10-05-2010 05:50:06 8.8 C 7.31 g/m*3 8.8 C 0 km/h
Sensor: Nr:Datum:Temp:Abs-Feuchte:Windchill:Wind:
Aussen-T/F 151 10-05-2010 06:02:06 8.7 C 7.26 g/m*3 8.7 C 0 km/h
152 10-05-2010 06:14:06 8.7 C 7.26 g/m*3 8.7 C 0 km/h
153 10-05-2010 06:26:06 8.8 C 7.31 g/m*3 8.8 C 0 km/h
154 10-05-2010 06:38:04 8.9 C 7.36 g/m*3 8.9 C 0 km/h
155 10-05-2010 06:50:02 9 C 7.32 g/m*3 9 C 0 km/h
156 10-05-2010 07:02:02 9.1 C 7.36 g/m*3 9.1 C 0 km/h
157 10-05-2010 07:14:02 9.4 C 7.51 g/m*3 9.4 C 0 km/h
158 10-05-2010 07:26:01 9.6 C 7.6 g/m*3 9.6 C 0 km/h
159 10-05-2010 07:38:02 9.8 C 7.7 g/m*3 9.8 C 0 km/h
160 10-05-2010 07:50:02 10.2 C 7.71 g/m*3 10.2 C 0 km/h
161 10-05-2010 08:02:02 10.5 C 7.76 g/m*3 10.5 C 0 km/h
162 10-05-2010 08:14:02 10.6 C 7.71 g/m*3 10.6 C 0 km/h
163 10-05-2010 08:26:02 10.7 C 7.66 g/m*3 10.7 C 0 km/h
164 10-05-2010 08:38:02 10.7 C 7.46 g/m*3 10.7 C 0 km/h
165 10-05-2010 08:50:02 10.7 C 7.37 g/m*3 10.7 C 0 km/h
166 10-05-2010 09:02:02 10.8 C 7.41 g/m*3 10.8 C 0 km/h
167 10-05-2010 09:14:03 10.8 C 7.22 g/m*3 10.8 C 0 km/h
168 10-05-2010 09:26:02 10.7 C 7.27 g/m*3 10.7 C 0 km/h
169 10-05-2010 09:38:02 11 C 7.21 g/m*3 11 C 0 km/h
170 10-05-2010 09:50:02 11.1 C 7.25 g/m*3 11.1 C 0 km/h
171 10-05-2010 10:02:02 11.1 C 7.15 g/m*3 11.1 C 0 km/h
172 10-05-2010 10:14:02 11.4 C 7.08 g/m*3 11.4 C 0 km/h
173 10-05-2010 10:26:03 11.2 C 7.1 g/m*3 11.2 C 0 km/h
174 10-05-2010 10:38:02 11.6 C 7.17 g/m*3 11.6 C 0 km/h
175 10-05-2010 10:50:02 11.4 C 6.98 g/m*3 11.4 C 0 km/h
Sensor: Nr:Datum:Temp:Abs-Feuchte:Windchill:Wind:
Aussen-T/F 176 10-05-2010 11:02:02 11.5 C 7.13 g/m*3 11.5 C 0 km/h
177 10-05-2010 11:14:02 11.5 C 7.02 g/m*3 11.5 C 0 km/h
178 10-05-2010 11:26:02 11.5 C 7.02 g/m*3 11.5 C 0 km/h
179 10-05-2010 11:38:02 11.3 C 7.04 g/m*3 11.3 C 0 km/h
180 10-05-2010 11:50:02 11.7 C 7.22 g/m*3 11.7 C 0 km/h
181 10-05-2010 12:02:03 11.7 C 7.11 g/m*3 11.7 C 0 km/h
182 10-05-2010 12:14:03 11.6 C 6.96 g/m*3 11.6 C 0 km/h
183 10-05-2010 12:26:02 12.7 C 7.01 g/m*3 12.7 C 0 km/h
184 10-05-2010 12:38:03 12.9 C 6.76 g/m*3 12.9 C 0 km/h
185 10-05-2010 12:50:02 14.1 C 6.8 g/m*3 14.1 C 0 km/h
186 10-05-2010 13:02:02 13.5 C 6.43 g/m*3 13.5 C 0 km/h
187 10-05-2010 13:14:02 13.5 C 6.43 g/m*3 13.5 C 0 km/h
188 10-05-2010 13:26:01 14.7 C 6.17 g/m*3 14.7 C 0 km/h
189 10-05-2010 13:38:02 15.3 C 6.4 g/m*3 15.3 C 0 km/h
190 10-05-2010 13:50:02 15.4 C 6.18 g/m*3 15.4 C 0 km/h
191 10-05-2010 14:02:02 15.3 C 6.01 g/m*3 15.3 C 0 km/h
192 10-05-2010 14:14:02 15.5 C 6.08 g/m*3 15.5 C 0 km/h
193 10-05-2010 14:26:02 14.8 C 5.95 g/m*3 14.8 C 0 km/h
194 10-05-2010 14:38:02 14.7 C 5.92 g/m*3 14.7 C 0 km/h
195 10-05-2010 14:50:02 14.7 C 5.92 g/m*3 14.7 C 0 km/h
196 10-05-2010 15:02:02 15 C 5.77 g/m*3 15 C 0 km/h
197 10-05-2010 15:14:02 15.4 C 5.78 g/m*3 15.4 C 0 km/h
198 10-05-2010 15:26:02 15.1 C 5.93 g/m*3 15.1 C 0 km/h
199 10-05-2010 15:38:02 15.3 C 5.62 g/m*3 15.3 C 0 km/h
200 10-05-2010 15:50:02 14.7 C 5.79 g/m*3 14.7 C 0 km/h
Sensor: Nr:Datum:Temp:Abs-Feuchte:Windchill:Wind:
Aussen-T/F 201 10-05-2010 16:02:02 15.2 C 5.84 g/m*3 15.2 C 0 km/h
202 10-05-2010 16:14:02 15.8 C 5.79 g/m*3 15.8 C 0 km/h
203 10-05-2010 16:26:02 15.7 C 5.49 g/m*3 15.7 C 0 km/h
204 10-05-2010 16:38:02 16.2 C 5.52 g/m*3 16.2 C 0 km/h
205 10-05-2010 16:50:02 16.3 C 5.13 g/m*3 16.3 C 0 km/h
206 10-05-2010 17:02:02 15.5 C 5.42 g/m*3 15.5 C 0 km/h
207 10-05-2010 17:14:02 15.6 C 5.45 g/m*3 15.6 C 0 km/h
208 10-05-2010 17:26:02 16 C 5.31 g/m*3 16 C 0 km/h
209 10-05-2010 17:38:02 16 C 5.31 g/m*3 16 C 0 km/h
210 10-05-2010 17:50:01 15.8 C 5.38 g/m*3 15.8 C 0 km/h
211 10-05-2010 18:02:02 16.4 C 5.02 g/m*3 16.4 C 0 km/h
212 10-05-2010 18:14:02 17.3 C 5.01 g/m*3 17.3 C 0 km/h
213 10-05-2010 18:26:02 17.6 C 5.1 g/m*3 17.6 C 0 km/h
214 10-05-2010 18:38:01 17.1 C 4.66 g/m*3 17.1 C 0 km/h
215 10-05-2010 18:50:02 15.8 C 4.71 g/m*3 15.8 C 0 km/h
216 10-05-2010 19:02:01 15.4 C 4.73 g/m*3 15.4 C 0 km/h
217 10-05-2010 19:14:01 15.6 C 4.92 g/m*3 15.6 C 0 km/h
218 10-05-2010 19:26:02 14.9 C 4.97 g/m*3 14.9 C 0 km/h
219 10-05-2010 19:38:01 14.7 C 5.04 g/m*3 14.7 C 0 km/h
220 10-05-2010 19:50:02 14.5 C 5.1 g/m*3 14.5 C 0 km/h
221 10-05-2010 20:02:01 14.5 C 4.97 g/m*3 14.5 C 0 km/h
222 10-05-2010 20:14:01 14.5 C 4.97 g/m*3 14.5 C 0 km/h
223 10-05-2010 20:26:02 14.3 C 5.04 g/m*3 14.3 C 0 km/h
224 10-05-2010 20:38:01 13.7 C 5.09 g/m*3 13.7 C 0 km/h
225 10-05-2010 20:50:02 13.1 C 5.14 g/m*3 13.1 C 0 km/h
Sensor: Nr:Datum:Temp:Abs-Feuchte:Windchill:Wind:
Aussen-T/F 226 10-05-2010 21:02:02 12.8 C 5.38 g/m*3 12.8 C 0 km/h
227 10-05-2010 21:14:02 12.3 C 5.43 g/m*3 12.3 C 0 km/h
228 10-05-2010 21:26:02 11.9 C 5.51 g/m*3 11.9 C 0 km/h
229 10-05-2010 21:38:02 11.6 C 5.4 g/m*3 11.6 C 0 km/h
230 10-05-2010 21:50:02 11.5 C 5.58 g/m*3 11.5 C 0 km/h
231 10-05-2010 22:02:02 11.5 C 5.68 g/m*3 11.5 C 0 km/h
232 10-05-2010 22:14:02 11.5 C 5.58 g/m*3 11.5 C 0 km/h
233 10-05-2010 22:27:04 11.2 C 5.57 g/m*3 11.2 C 0 km/h
234 10-05-2010 22:39:04 11.1 C 5.54 g/m*3 11.1 C 0 km/h
235 10-05-2010 22:51:04 11.8 C 5.79 g/m*3 11.8 C 0 km/h
236 10-05-2010 23:03:04 11.6 C 5.92 g/m*3 11.6 C 0 km/h
237 10-05-2010 23:15:05 11.2 C 5.68 g/m*3 11.2 C 0 km/h
238 10-05-2010 23:27:05 11.3 C 5.81 g/m*3 11.3 C 0 km/h
239 10-05-2010 23:39:05 11.4 C 5.85 g/m*3 11.4 C 0 km/h
240 10-05-2010 23:51:05 11.2 C 5.78 g/m*3 11.2 C 0 km/h
241 11-05-2010 00:03:05 11 C 5.71 g/m*3 11 C 0 km/h
242 11-05-2010 00:15:05 11.1 C 5.74 g/m*3 11.1 C 0 km/h
243 11-05-2010 00:27:05 10.7 C 5.7 g/m*3 10.7 C 0 km/h
244 11-05-2010 00:39:05 10.8 C 5.83 g/m*3 10.8 C 0 km/h
245 11-05-2010 00:51:05 10.8 C 5.83 g/m*3 10.8 C 0 km/h
246 11-05-2010 01:03:05 10.4 C 5.88 g/m*3 10.4 C 0 km/h
247 11-05-2010 01:15:05 10.5 C 5.82 g/m*3 10.5 C 0 km/h
248 11-05-2010 01:27:05 10.5 C 5.92 g/m*3 10.5 C 0 km/h
249 11-05-2010 01:39:05 10.4 C 5.98 g/m*3 10.4 C 0 km/h
250 11-05-2010 01:51:05 10.3 C 6.03 g/m*3 10.3 C 0 km/h
Sensor: Nr:Datum:Temp:Abs-Feuchte:Windchill:Wind:
Aussen-T/F 251 11-05-2010 02:03:05 10.1 C 5.96 g/m*3 10.1 C 0 km/h
252 11-05-2010 02:15:05 10 C 6.01 g/m*3 10 C 0 km/h
253 11-05-2010 02:27:05 10.1 C 6.05 g/m*3 10.1 C 0 km/h
254 11-05-2010 02:39:05 10.1 C 6.05 g/m*3 10.1 C 0 km/h
255 11-05-2010 02:51:05 10.2 C 6.09 g/m*3 10.2 C 0 km/h
256 11-05-2010 03:03:05 10 C 6.11 g/m*3 10 C 0 km/h
257 11-05-2010 03:15:05 9.7 C 5.99 g/m*3 9.7 C 0 km/h
258 11-05-2010 03:27:05 9.9 C 6.07 g/m*3 9.9 C 0 km/h
259 11-05-2010 03:39:06 9.7 C 6.27 g/m*3 9.7 C 0 km/h
260 11-05-2010 03:51:06 9.6 C 6.32 g/m*3 9.6 C 0 km/h
261 11-05-2010 04:03:06 9.7 C 6.45 g/m*3 9.7 C 0 km/h
262 11-05-2010 04:15:06 9.5 C 6.1 g/m*3 9.5 C 0 km/h
263 11-05-2010 04:27:06 9.4 C 6.06 g/m*3 9.4 C 0 km/h
264 11-05-2010 04:39:06 9.3 C 6.02 g/m*3 9.3 C 0 km/h
265 11-05-2010 04:51:06 9.4 C 6.15 g/m*3 9.4 C 0 km/h
266 11-05-2010 05:03:06 9.4 C 6.15 g/m*3 9.4 C 0 km/h
267 11-05-2010 05:15:06 9.3 C 6.11 g/m*3 9.3 C 0 km/h
268 11-05-2010 05:27:06 9.5 C 6.19 g/m*3 9.5 C 0 km/h
269 11-05-2010 05:39:06 9.4 C 6.15 g/m*3 9.4 C 0 km/h
270 11-05-2010 05:51:06 9.3 C 6.2 g/m*3 9.3 C 0 km/h
271 11-05-2010 06:03:06 9.4 C 6.24 g/m*3 9.4 C 0 km/h
272 11-05-2010 06:15:06 9.3 C 6.11 g/m*3 9.3 C 0 km/h
273 11-05-2010 06:27:06 9.3 C 6.2 g/m*3 9.3 C 0 km/h
274 11-05-2010 06:39:06 9.1 C 6.12 g/m*3 9.1 C 0 km/h
275 11-05-2010 06:51:02 9.1 C 6.12 g/m*3 9.1 C 0 km/h
Sensor: Nr:Datum:Temp:Abs-Feuchte:Windchill:Wind:
Aussen-T/F 276 11-05-2010 07:03:01 9.3 C 6.29 g/m*3 9.3 C 0 km/h
277 11-05-2010 07:15:02 9.5 C 6.37 g/m*3 9.5 C 0 km/h
278 11-05-2010 07:27:02 9.6 C 6.32 g/m*3 9.6 C 0 km/h
279 11-05-2010 07:39:02 9.7 C 6.27 g/m*3 9.7 C 0 km/h
280 11-05-2010 07:51:01 9.9 C 6.35 g/m*3 9.9 C 0 km/h
281 11-05-2010 08:03:02 10.1 C 6.24 g/m*3 10.1 C 0 km/h
282 11-05-2010 08:15:01 10.5 C 6.3 g/m*3 10.5 C 0 km/h
283 11-05-2010 08:27:01 10.7 C 6.19 g/m*3 10.7 C 0 km/h
284 11-05-2010 08:39:01 11.2 C 6.28 g/m*3 11.2 C 0 km/h
285 11-05-2010 08:51:01 12 C 6.29 g/m*3 12 C 0 km/h
286 11-05-2010 09:03:02 11.7 C 6.07 g/m*3 11.7 C 0 km/h
287 11-05-2010 09:15:01 11.7 C 6.07 g/m*3 11.7 C 0 km/h
288 11-05-2010 09:27:01 11.9 C 6.14 g/m*3 11.9 C 0 km/h
289 11-05-2010 09:39:02 12.8 C 6.05 g/m*3 12.8 C 0 km/h
290 11-05-2010 09:51:01 12.7 C 5.79 g/m*3 12.7 C 0 km/h
291 11-05-2010 10:03:02 12.8 C 6.16 g/m*3 12.8 C 0 km/h
292 11-05-2010 10:15:02 13 C 6.01 g/m*3 13 C 0 km/h
293 11-05-2010 10:27:02 13 C 5.9 g/m*3 13 C 0 km/h
294 11-05-2010 10:39:01 12.3 C 5.97 g/m*3 12.3 C 0 km/h
295 11-05-2010 10:51:01 11.8 C 6.21 g/m*3 11.8 C 0 km/h
296 11-05-2010 11:03:01 12 C 6.07 g/m*3 12 C 0 km/h
297 11-05-2010 11:15:02 12 C 6.07 g/m*3 12 C 0 km/h
298 11-05-2010 11:27:02 12 C 6.18 g/m*3 12 C 0 km/h
299 11-05-2010 11:39:02 12.5 C 6.38 g/m*3 12.5 C 0 km/h
300 11-05-2010 11:51:02 14.1 C 6.19 g/m*3 14.1 C 0 km/h
Sensor: Nr:Datum:Temp:Abs-Feuchte:Windchill:Wind:
Aussen-T/F 301 11-05-2010 12:03:02 14.1 C 5.95 g/m*3 14.1 C 0 km/h
302 11-05-2010 12:15:02 13.7 C 6.28 g/m*3 13.7 C 0 km/h
303 11-05-2010 12:27:02 14.8 C 6.33 g/m*3 14.8 C 0 km/h
304 11-05-2010 12:39:01 14.1 C 5.95 g/m*3 14.1 C 0 km/h
305 11-05-2010 12:51:02 14.3 C 6.27 g/m*3 14.3 C 0 km/h
306 11-05-2010 13:03:01 13.4 C 6.16 g/m*3 13.4 C 0 km/h
307 11-05-2010 13:15:01 13.7 C 6.39 g/m*3 13.7 C 0 km/h
308 11-05-2010 13:27:01 14.2 C 6.23 g/m*3 14.2 C 0 km/h
309 11-05-2010 13:39:01 14.1 C 6.19 g/m*3 14.1 C 0 km/h
310 11-05-2010 13:51:02 13.3 C 6.35 g/m*3 13.3 C 0 km/h
311 11-05-2010 14:03:01 14.1 C 6.43 g/m*3 14.1 C 0 km/h
312 11-05-2010 14:15:01 14 C 6.27 g/m*3 14 C 0 km/h
313 11-05-2010 14:27:01 14.1 C 6.43 g/m*3 14.1 C 0 km/h
314 11-05-2010 14:39:02 14 C 6.39 g/m*3 14 C 0 km/h
315 11-05-2010 14:51:02 14 C 6.51 g/m*3 14 C 0 km/h
316 11-05-2010 15:03:02 14.4 C 6.55 g/m*3 14.4 C 0 km/h
317 11-05-2010 15:15:02 14.1 C 6.31 g/m*3 14.1 C 0 km/h
318 11-05-2010 15:27:02 14.7 C 6.55 g/m*3 14.7 C 0 km/h
319 11-05-2010 15:39:02 14.5 C 6.34 g/m*3 14.5 C 0 km/h
320 11-05-2010 15:51:02 14.3 C 6.39 g/m*3 14.3 C 0 km/h
321 11-05-2010 16:03:03 14.3 C 6.51 g/m*3 14.3 C 0 km/h
322 11-05-2010 16:15:02 14.8 C 6.71 g/m*3 14.8 C 0 km/h
323 11-05-2010 16:27:02 15.6 C 6.65 g/m*3 15.6 C 0 km/h
324 11-05-2010 16:39:03 15.9 C 6.5 g/m*3 15.9 C 0 km/h
325 11-05-2010 16:51:01 15.6 C 6.52 g/m*3 15.6 C 0 km/h
Sensor: Nr:Datum:Temp:Abs-Feuchte:Windchill:Wind:
Aussen-T/F 326 11-05-2010 17:03:02 14.9 C 6.75 g/m*3 14.9 C 0 km/h
327 11-05-2010 17:15:01 15.1 C 6.58 g/m*3 15.1 C 0 km/h
328 11-05-2010 17:27:01 14.7 C 6.8 g/m*3 14.7 C 0 km/h
329 11-05-2010 17:39:02 14.8 C 6.71 g/m*3 14.8 C 0 km/h
330 11-05-2010 17:51:01 14.7 C 6.8 g/m*3 14.7 C 0 km/h
331 11-05-2010 18:03:02 14.5 C 6.96 g/m*3 14.5 C 0 km/h
332 11-05-2010 18:15:02 13.9 C 7.07 g/m*3 13.9 C 0 km/h
333 11-05-2010 18:27:02 12.5 C 7.48 g/m*3 12.5 C 0 km/h
334 11-05-2010 18:39:02 11.9 C 8.05 g/m*3 11.9 C 0 km/h
335 11-05-2010 18:51:01 11.6 C 8.21 g/m*3 11.6 C 0 km/h
336 11-05-2010 19:03:02 11.3 C 8.16 g/m*3 11.3 C 0 km/h
337 11-05-2010 19:15:02 11.1 C 8.36 g/m*3 11.1 C 0 km/h
338 11-05-2010 19:27:02 10.9 C 8.36 g/m*3 10.9 C 0 km/h
339 11-05-2010 19:39:02 10.8 C 8.3 g/m*3 10.8 C 0 km/h
340 11-05-2010 19:51:01 10.6 C 8.39 g/m*3 10.6 C 0 km/h
341 11-05-2010 20:03:02 10.5 C 8.44 g/m*3 10.5 C 0 km/h
342 11-05-2010 20:15:02 10.2 C 8.37 g/m*3 10.2 C 0 km/h
343 11-05-2010 20:27:02 10.1 C 8.42 g/m*3 10.1 C 0 km/h
344 11-05-2010 20:39:02 10 C 8.46 g/m*3 10 C 0 km/h
345 11-05-2010 20:51:02 9.8 C 8.54 g/m*3 9.8 C 0 km/h
346 11-05-2010 21:03:01 9.8 C 8.54 g/m*3 9.8 C 0 km/h
347 11-05-2010 21:15:02 9.9 C 8.59 g/m*3 9.9 C 0 km/h
348 11-05-2010 21:27:03 10 C 8.64 g/m*3 10 C 0 km/h
349 11-05-2010 21:39:01 9.8 C 8.63 g/m*3 9.8 C 0 km/h
350 11-05-2010 21:51:02 9.8 C 8.63 g/m*3 9.8 C 0 km/h
Sensor: Nr:Datum:Temp:Abs-Feuchte:Windchill:Wind:
Aussen-T/F 351 11-05-2010 22:03:02 9.7 C 8.57 g/m*3 9.7 C 0 km/h
352 11-05-2010 22:15:01 9.6 C 8.52 g/m*3 9.6 C 0 km/h
353 11-05-2010 22:27:01 9.8 C 8.72 g/m*3 9.8 C 0 km/h
354 11-05-2010 22:40:03 9.6 C 8.61 g/m*3 9.6 C 0 km/h
355 11-05-2010 22:52:03 9.7 C 8.67 g/m*3 9.7 C 0 km/h
356 11-05-2010 23:04:03 9.8 C 8.72 g/m*3 9.8 C 0 km/h
357 11-05-2010 23:16:03 9.8 C 8.72 g/m*3 9.8 C 0 km/h
358 11-05-2010 23:28:03 9.8 C 8.72 g/m*3 9.8 C 0 km/h
359 11-05-2010 23:40:03 9.9 C 8.78 g/m*3 9.9 C 0 km/h
360 11-05-2010 23:52:03 9.7 C 8.67 g/m*3 9.7 C 0 km/h

Legende:
   Min
   Max


Maximal/Minimal-Werte vom 09.05.2010 - 11.05.2010

Sensor Min Max Avg
Temp
(Aussen-T/F)
7.4 °C
09-05-2010  05:37:02
19.6 °C
09-05-2010  17:13:02
12.04 °C
Abs-Feuchte
(Aussen-T/F)
4.66 g/m*3
10-05-2010  18:38:01
8.78 g/m*3
11-05-2010  23:40:03
6.61 g/m*3
Windchill
(Aussen-T/F)
7.4 C
09-05-2010  05:37:02
19.6 C
09-05-2010  17:13:02
12 C

Die Daten stammen von einer Davis Vantage Pro 2 Wetter-Station und werden unter Linux mit der Software wview2wettercgi und aufbereitet. Alle Angaben erfolgen ohne Gewähr für ihre Vollständigkeit oder Richtigkeit.
Kontakt: Rainer Krienke krienke@uni-koblenz.de . Meine Webseiten an der Uni Koblenz oder privat.
Version: $Revision: 0.78 $